Time;durP1;ratioP1;P1;durP2;ratioP2;P2;SDS_P1;SDS_P2;PMS_P1;PMS_P2;Temp;Humidity;BMP_temperature;BMP_pressure;BME280_temperature;BME280_humidity;BME280_pressure;Samples;Min_cycle;Max_cycle;Signal;HPM_P1;HPM_P2
2023/09/27 00:03:20;;;;;;;5.70;3.33;;;;;;;;;;10358434;28;20355;-61
2023/09/27 00:08:21;;;;;;;11.02;3.88;;;;;;;;;;10364329;28;20022;-61
2023/09/27 00:13:21;;;;;;;10.75;3.65;;;;;;;;;;10363370;28;20100;-61
2023/09/27 00:18:22;;;;;;;6.35;3.47;;;;;;;;;;10364521;28;20026;-61
2023/09/27 00:23:23;;;;;;;7.13;3.42;;;;;;;;;;10363207;28;20029;-61
2023/09/27 00:28:24;;;;;;;9.23;4.28;;;;;;;;;;10329464;28;20029;-61
2023/09/27 00:33:24;;;;;;;11.43;3.80;;;;;;;;;;10346954;28;20050;-62
2023/09/27 00:38:25;;;;;;;4.85;3.47;;;;;;;;;;10362800;28;20181;-61
2023/09/27 00:43:31;;;;;;;10.05;3.42;;;;;;;;;;10350022;28;20517;-60
2023/09/27 00:48:34;;;;;;;6.45;3.58;;;;;;;;;;10350611;28;20574;-61
2023/09/27 00:53:37;;;;;;;9.52;3.42;;;;;;;;;;10361885;28;20029;-60
2023/09/27 00:58:38;;;;;;;7.57;3.85;;;;;;;;;;10352272;28;20034;-60
2023/09/27 01:03:39;;;;;;;5.15;3.47;;;;;;;;;;10375187;28;20026;-61
2023/09/27 01:08:39;;;;;;;4.80;3.78;;;;;;;;;;10364962;28;20022;-60
2023/09/27 01:13:40;;;;;;;6.32;3.78;;;;;;;;;;10371105;28;20377;-61
2023/09/27 01:18:40;;;;;;;4.85;3.70;;;;;;;;;;10358710;28;20045;-63
2023/09/27 01:23:41;;;;;;;5.93;3.70;;;;;;;;;;10354085;28;20034;-62
2023/09/27 01:28:46;;;;;;;7.72;3.90;;;;;;;;;;10364856;28;20053;-62
2023/09/27 01:33:46;;;;;;;5.38;3.50;;;;;;;;;;10355883;28;20497;-62
2023/09/27 01:38:47;;;;;;;17.83;4.05;;;;;;;;;;10369386;28;20034;-62
2023/09/27 01:43:48;;;;;;;4.70;3.60;;;;;;;;;;10368439;28;20055;-61
2023/09/27 01:48:48;;;;;;;5.10;3.78;;;;;;;;;;10354527;28;20057;-62
2023/09/27 01:53:49;;;;;;;3.35;3.05;;;;;;;;;;10368823;28;20080;-62
2023/09/27 01:58:49;;;;;;;6.28;3.17;;;;;;;;;;10369026;28;20026;-58
2023/09/27 02:03:50;;;;;;;4.82;3.30;;;;;;;;;;10369162;28;20045;-59
2023/09/27 02:08:51;;;;;;;8.43;3.08;;;;;;;;;;10356957;28;20038;-61
2023/09/27 02:13:51;;;;;;;6.30;3.70;;;;;;;;;;10367417;28;20069;-61
2023/09/27 02:18:52;;;;;;;5.18;3.35;;;;;;;;;;10367567;28;20026;-61
2023/09/27 02:23:53;;;;;;;6.85;3.95;;;;;;;;;;10367464;28;20022;-62
2023/09/27 02:28:53;;;;;;;7.32;3.38;;;;;;;;;;10358754;28;20022;-61
2023/09/27 02:33:54;;;;;;;6.15;3.47;;;;;;;;;;10356189;28;20068;-60
2023/09/27 02:38:54;;;;;;;12.93;3.88;;;;;;;;;;10366634;28;20030;-61
2023/09/27 02:43:55;;;;;;;4.90;3.30;;;;;;;;;;10366400;28;20048;-61
2023/09/27 02:48:55;;;;;;;4.80;3.20;;;;;;;;;;10365246;28;20053;-62
2023/09/27 02:53:56;;;;;;;5.57;3.33;;;;;;;;;;10366543;28;20031;-61
2023/09/27 02:58:57;;;;;;;7.05;3.38;;;;;;;;;;10363396;28;20034;-61
2023/09/27 03:03:57;;;;;;;5.97;4.13;;;;;;;;;;10364674;28;20063;-61
2023/09/27 03:08:58;;;;;;;7.13;3.97;;;;;;;;;;10366474;28;20029;-61
2023/09/27 03:13:59;;;;;;;11.60;3.83;;;;;;;;;;10355679;28;20022;-62
2023/09/27 03:19:00;;;;;;;5.82;3.40;;;;;;;;;;10366025;28;20068;-61
2023/09/27 03:24:00;;;;;;;4.75;3.45;;;;;;;;;;10354685;28;20454;-62
2023/09/27 03:29:01;;;;;;;8.25;3.58;;;;;;;;;;10353389;28;20088;-62
2023/09/27 03:34:01;;;;;;;5.05;3.42;;;;;;;;;;10360294;28;20405;-62
2023/09/27 03:39:02;;;;;;;3.72;3.08;;;;;;;;;;10365476;28;20083;-62
2023/09/27 03:44:03;;;;;;;9.70;3.28;;;;;;;;;;10353509;28;20021;-62
2023/09/27 03:49:04;;;;;;;7.25;3.85;;;;;;;;;;10361205;28;20062;-61
2023/09/27 03:54:04;;;;;;;5.18;3.47;;;;;;;;;;10356434;28;20033;-62
2023/09/27 03:59:05;;;;;;;4.38;3.17;;;;;;;;;;10365089;28;20064;-62
2023/09/27 04:04:06;;;;;;;7.13;3.78;;;;;;;;;;10362823;28;20417;-62
2023/09/27 04:09:08;;;;;;;4.65;3.20;;;;;;;;;;10352686;28;20515;-62
2023/09/27 04:14:09;;;;;;;8.25;3.92;;;;;;;;;;10363067;28;20117;-62
2023/09/27 04:19:10;;;;;;;6.07;3.63;;;;;;;;;;10364804;28;20048;-57
2023/09/27 04:24:11;;;;;;;4.75;3.47;;;;;;;;;;10364581;28;20037;-61
2023/09/27 04:29:11;;;;;;;12.30;4.40;;;;;;;;;;10363708;28;20452;-61
2023/09/27 04:34:12;;;;;;;6.45;3.75;;;;;;;;;;10350162;28;20080;-62
2023/09/27 04:39:14;;;;;;;7.13;4.38;;;;;;;;;;10357159;28;20026;-58
2023/09/27 04:44:16;;;;;;;8.40;4.68;;;;;;;;;;10342425;28;20113;-60
2023/09/27 04:49:16;;;;;;;13.68;4.80;;;;;;;;;;10359819;28;20052;-61
2023/09/27 04:54:17;;;;;;;9.35;4.80;;;;;;;;;;10370747;28;20017;-61
2023/09/27 04:59:17;;;;;;;8.57;5.43;;;;;;;;;;10357680;28;20033;-62
2023/09/27 05:04:18;;;;;;;10.45;5.47;;;;;;;;;;10370119;28;20029;-59
2023/09/27 05:09:19;;;;;;;13.98;5.47;;;;;;;;;;10367134;28;20018;-57
2023/09/27 05:14:19;;;;;;;14.35;4.60;;;;;;;;;;10348040;28;20486;-62
2023/09/27 05:19:20;;;;;;;7.85;4.03;;;;;;;;;;10356312;28;20038;-59
2023/09/27 05:24:20;;;;;;;7.43;3.35;;;;;;;;;;10369416;28;20041;-60
2023/09/27 05:29:21;;;;;;;5.60;3.50;;;;;;;;;;10336675;28;20034;-60
2023/09/27 05:34:21;;;;;;;13.18;3.78;;;;;;;;;;10341795;28;20026;-60
2023/09/27 05:39:22;;;;;;;10.38;3.25;;;;;;;;;;10363199;28;20026;-60
2023/09/27 05:44:23;;;;;;;6.30;3.30;;;;;;;;;;10365361;28;20300;-59
2023/09/27 05:49:24;;;;;;;7.05;3.20;;;;;;;;;;10365386;28;20418;-58
2023/09/27 05:54:25;;;;;;;6.80;3.55;;;;;;;;;;10362198;28;20034;-58
2023/09/27 05:59:25;;;;;;;6.50;3.55;;;;;;;;;;10354460;28;20386;-58
2023/09/27 06:04:26;;;;;;;5.95;3.13;;;;;;;;;;10369554;28;20041;-58
2023/09/27 06:09:26;;;;;;;14.35;3.72;;;;;;;;;;10368987;28;20477;-58
2023/09/27 06:14:27;;;;;;;5.18;3.45;;;;;;;;;;10354071;28;20548;-57
2023/09/27 06:19:28;;;;;;;7.45;3.30;;;;;;;;;;10348282;28;20505;-58
2023/09/27 06:24:28;;;;;;;7.20;3.38;;;;;;;;;;10360434;28;20500;-58
2023/09/27 06:29:29;;;;;;;7.72;4.00;;;;;;;;;;10360520;28;20022;-58
2023/09/27 06:34:29;;;;;;;9.40;3.45;;;;;;;;;;10349550;28;20057;-58
2023/09/27 06:39:30;;;;;;;6.32;3.50;;;;;;;;;;10367001;28;20481;-58
2023/09/27 06:44:33;;;;;;;6.65;3.22;;;;;;;;;;10354399;28;20268;-57
2023/09/27 06:49:34;;;;;;;5.68;3.13;;;;;;;;;;10366987;28;20034;-58
2023/09/27 06:54:34;;;;;;;14.77;3.60;;;;;;;;;;10367204;28;20478;-58
2023/09/27 06:59:36;;;;;;;7.85;3.60;;;;;;;;;;10356159;28;20030;-59
2023/09/27 07:04:38;;;;;;;8.93;3.05;;;;;;;;;;10366317;28;20046;-59
2023/09/27 07:09:40;;;;;;;4.20;3.42;;;;;;;;;;10352860;28;20168;-59
2023/09/27 07:14:41;;;;;;;13.02;3.58;;;;;;;;;;10361647;28;20092;-59
2023/09/27 07:19:42;;;;;;;6.75;3.00;;;;;;;;;;10346403;28;20030;-59
2023/09/27 07:24:42;;;;;;;6.82;3.30;;;;;;;;;;10365697;28;20018;-59
2023/09/27 07:29:43;;;;;;;7.10;3.22;;;;;;;;;;10365666;28;20470;-59
2023/09/27 07:34:44;;;;;;;7.38;3.20;;;;;;;;;;10354917;28;20069;-58
2023/09/27 07:39:47;;;;;;;8.02;3.47;;;;;;;;;;10365465;28;20048;-59
2023/09/27 07:44:47;;;;;;;10.05;3.00;;;;;;;;;;10352519;28;20049;-59
2023/09/27 07:49:48;;;;;;;4.63;3.20;;;;;;;;;;10363265;28;20053;-59
2023/09/27 07:54:48;;;;;;;9.02;3.17;;;;;;;;;;10355817;28;20045;-59
2023/09/27 07:59:49;;;;;;;10.45;3.33;;;;;;;;;;10360762;28;20072;-59
2023/09/27 08:04:50;;;;;;;8.73;3.35;;;;;;;;;;10340211;28;20096;-59
2023/09/27 08:09:51;;;;;;;5.80;2.90;;;;;;;;;;10364095;28;20314;-59
2023/09/27 08:14:52;;;;;;;4.03;2.88;;;;;;;;;;10363558;28;20040;-59
2023/09/27 08:19:52;;;;;;;8.52;3.13;;;;;;;;;;10351991;28;20367;-59
2023/09/27 08:24:53;;;;;;;6.88;3.22;;;;;;;;;;10363853;28;20532;-59
2023/09/27 08:29:54;;;;;;;12.32;3.33;;;;;;;;;;10352785;28;20026;-59
2023/09/27 08:34:55;;;;;;;9.63;2.92;;;;;;;;;;10348027;28;20041;-59
2023/09/27 08:39:56;;;;;;;15.55;3.38;;;;;;;;;;10364185;28;20057;-59
2023/09/27 08:44:57;;;;;;;8.82;3.00;;;;;;;;;;10363251;28;20038;-59
2023/09/27 08:49:58;;;;;;;12.32;3.70;;;;;;;;;;10363090;28;20409;-59
2023/09/27 08:54:59;;;;;;;6.43;3.38;;;;;;;;;;10363785;28;20034;-59
2023/09/27 09:00:00;;;;;;;10.35;3.75;;;;;;;;;;10361156;28;20033;-61
2023/09/27 09:05:01;;;;;;;8.77;3.50;;;;;;;;;;10340963;28;20065;-60
2023/09/27 09:10:01;;;;;;;6.28;3.25;;;;;;;;;;10350074;28;20030;-60
2023/09/27 09:15:05;;;;;;;7.63;3.50;;;;;;;;;;10347932;28;20038;-60
2023/09/27 09:25:28;;;;;;;9.40;3.40;;;;;;;;;;10356651;28;20033;-59
2023/09/27 09:30:40;;;;;;;10.70;3.35;;;;;;;;;;10360138;28;20072;-60
2023/09/27 09:35:41;;;;;;;12.23;3.00;;;;;;;;;;10360629;28;20144;-59
2023/09/27 09:40:56;;;;;;;6.03;3.25;;;;;;;;;;10354694;28;20044;-59
2023/09/27 09:45:57;;;;;;;7.93;3.35;;;;;;;;;;10359298;28;20022;-61
2023/09/27 09:51:07;;;;;;;4.82;2.80;;;;;;;;;;10360995;28;20060;-62
2023/09/27 09:56:10;;;;;;;11.15;3.72;;;;;;;;;;10351098;28;20076;-60
2023/09/27 10:01:21;;;;;;;13.02;3.90;;;;;;;;;;10357242;28;20026;-59
2023/09/27 10:06:22;;;;;;;14.40;3.45;;;;;;;;;;10370326;28;20057;-59
2023/09/27 10:11:24;;;;;;;7.88;3.40;;;;;;;;;;10369267;28;20046;-61
2023/09/27 10:16:25;;;;;;;8.82;2.67;;;;;;;;;;10367186;28;20022;-59
2023/09/27 10:21:26;;;;;;;8.45;4.00;;;;;;;;;;10367778;28;20401;-61
2023/09/27 10:26:26;;;;;;;5.13;3.45;;;;;;;;;;10355964;28;20027;-60
2023/09/27 10:31:28;;;;;;;13.57;4.10;;;;;;;;;;10367857;28;20022;-59
2023/09/27 10:36:30;;;;;;;8.10;3.70;;;;;;;;;;10344682;28;20842;-60
2023/09/27 10:41:38;;;;;;;7.18;3.65;;;;;;;;;;10367620;28;20227;-59
2023/09/27 10:46:45;;;;;;;10.23;3.58;;;;;;;;;;10367973;28;20391;-60
2023/09/27 10:51:45;;;;;;;9.07;3.50;;;;;;;;;;10367983;28;20311;-60
2023/09/27 10:56:52;;;;;;;11.95;3.42;;;;;;;;;;10366105;28;20604;-59
2023/09/27 11:01:58;;;;;;;8.82;3.65;;;;;;;;;;10357188;28;20185;-59
2023/09/27 11:06:59;;;;;;;7.75;3.60;;;;;;;;;;10354400;28;20026;-61
2023/09/27 11:12:00;;;;;;;8.30;4.10;;;;;;;;;;10366947;28;20052;-60
2023/09/27 11:17:22;;;;;;;18.38;3.90;;;;;;;;;;10367591;28;20091;-60
2023/09/27 11:22:29;;;;;;;8.68;3.55;;;;;;;;;;10365933;28;20029;-60
2023/09/27 11:27:30;;;;;;;6.97;3.38;;;;;;;;;;10367029;28;20025;-60
2023/09/27 11:32:51;;;;;;;17.15;3.70;;;;;;;;;;10357580;28;20030;-60
2023/09/27 11:38:11;;;;;;;14.77;3.97;;;;;;;;;;10342754;28;20030;-61
2023/09/27 11:43:12;;;;;;;8.25;3.60;;;;;;;;;;10363391;28;20129;-61
2023/09/27 11:48:14;;;;;;;7.65;3.45;;;;;;;;;;10353091;28;20038;-61
2023/09/27 11:53:15;;;;;;;10.95;4.00;;;;;;;;;;10350847;28;20120;-61
2023/09/27 11:58:16;;;;;;;9.95;3.40;;;;;;;;;;10351886;28;20417;-60
2023/09/27 12:03:16;;;;;;;10.25;3.47;;;;;;;;;;10364140;28;20034;-61
2023/09/27 12:08:17;;;;;;;8.00;3.50;;;;;;;;;;10355913;28;20030;-61
2023/09/27 12:13:17;;;;;;;7.00;3.38;;;;;;;;;;10332267;28;20205;-61
2023/09/27 12:18:18;;;;;;;9.95;3.63;;;;;;;;;;10328956;28;20034;-62
2023/09/27 12:23:19;;;;;;;9.25;3.80;;;;;;;;;;10335687;28;20040;-61
2023/09/27 12:28:20;;;;;;;10.20;3.47;;;;;;;;;;10334628;28;20042;-61
2023/09/27 12:33:20;;;;;;;7.70;3.38;;;;;;;;;;10334022;28;20417;-61
2023/09/27 12:38:22;;;;;;;12.75;4.03;;;;;;;;;;10353938;28;20499;-61
2023/09/27 12:43:23;;;;;;;13.52;3.78;;;;;;;;;;10362851;28;20037;-61
2023/09/27 12:48:24;;;;;;;14.35;4.25;;;;;;;;;;10357246;28;20046;-61
2023/09/27 12:53:25;;;;;;;10.55;3.65;;;;;;;;;;10335427;28;20034;-61
2023/09/27 12:58:26;;;;;;;14.35;3.58;;;;;;;;;;10364890;28;20236;-61
2023/09/27 13:03:26;;;;;;;8.75;3.60;;;;;;;;;;10365766;28;20037;-61
2023/09/27 13:08:27;;;;;;;19.27;3.58;;;;;;;;;;10364133;28;20386;-59
2023/09/27 13:13:29;;;;;;;12.30;4.00;;;;;;;;;;10368896;28;20072;-59
2023/09/27 13:18:29;;;;;;;16.75;4.00;;;;;;;;;;10371619;28;20026;-59
2023/09/27 13:23:30;;;;;;;17.02;4.28;;;;;;;;;;10370903;28;20444;-59
2023/09/27 13:28:31;;;;;;;31.83;5.80;;;;;;;;;;10370174;28;20564;-59
2023/09/27 13:33:31;;;;;;;15.80;4.63;;;;;;;;;;10341937;28;20505;-59
2023/09/27 13:38:33;;;;;;;19.20;3.83;;;;;;;;;;10340620;28;20045;-59
2023/09/27 13:43:35;;;;;;;19.48;4.30;;;;;;;;;;10349604;28;20028;-59
2023/09/27 13:48:35;;;;;;;14.27;3.95;;;;;;;;;;10368626;28;20076;-59
2023/09/27 13:53:36;;;;;;;25.20;4.45;;;;;;;;;;10337915;28;20065;-59
2023/09/27 13:58:39;;;;;;;15.02;3.70;;;;;;;;;;10339720;28;20026;-59
2023/09/27 14:03:40;;;;;;;14.43;3.70;;;;;;;;;;10355187;28;20033;-59
2023/09/27 14:08:40;;;;;;;9.15;3.63;;;;;;;;;;10350756;28;20047;-59
2023/09/27 14:13:41;;;;;;;9.40;3.88;;;;;;;;;;10336290;28;20494;-59
2023/09/27 14:18:42;;;;;;;9.45;3.65;;;;;;;;;;10354910;28;20087;-59
2023/09/27 14:23:44;;;;;;;7.53;4.00;;;;;;;;;;10339024;28;20121;-59
2023/09/27 14:28:44;;;;;;;13.10;4.10;;;;;;;;;;10353119;28;20389;-59
2023/09/27 14:33:45;;;;;;;12.02;3.53;;;;;;;;;;10349955;28;20076;-59
2023/09/27 14:38:45;;;;;;;10.93;3.38;;;;;;;;;;10359482;28;20026;-58
2023/09/27 14:43:46;;;;;;;10.40;3.55;;;;;;;;;;10348706;28;20038;-59
2023/09/27 14:48:46;;;;;;;12.43;3.72;;;;;;;;;;10340524;28;20282;-59
2023/09/27 14:53:47;;;;;;;9.70;3.60;;;;;;;;;;10346946;28;20073;-59
2023/09/27 14:58:48;;;;;;;10.20;3.22;;;;;;;;;;10340232;28;20030;-58
2023/09/27 15:03:48;;;;;;;8.02;3.40;;;;;;;;;;10344700;28;20387;-59
2023/09/27 15:08:49;;;;;;;15.27;3.58;;;;;;;;;;10346522;28;20026;-58
2023/09/27 15:13:50;;;;;;;10.63;3.53;;;;;;;;;;10343510;28;20096;-59
2023/09/27 15:18:51;;;;;;;17.73;3.47;;;;;;;;;;10349024;28;20072;-59
2023/09/27 15:23:52;;;;;;;17.33;3.78;;;;;;;;;;10345684;28;20048;-60
2023/09/27 15:28:52;;;;;;;8.82;3.85;;;;;;;;;;10330370;28;20482;-60
2023/09/27 15:33:53;;;;;;;10.32;3.55;;;;;;;;;;10344354;28;20026;-60
2023/09/27 15:38:53;;;;;;;8.40;2.95;;;;;;;;;;10332829;28;20023;-60
2023/09/27 15:43:54;;;;;;;12.20;3.40;;;;;;;;;;10334740;28;20025;-60
2023/09/27 15:48:57;;;;;;;9.57;3.90;;;;;;;;;;10337168;28;20049;-60
2023/09/27 15:53:57;;;;;;;6.90;3.22;;;;;;;;;;10355336;28;20026;-61
2023/09/27 15:58:58;;;;;;;7.25;3.35;;;;;;;;;;10339987;28;20026;-60
2023/09/27 16:03:58;;;;;;;6.85;2.90;;;;;;;;;;10342401;28;20390;-60
2023/09/27 16:08:59;;;;;;;7.80;3.10;;;;;;;;;;10343050;28;20405;-60
2023/09/27 16:13:59;;;;;;;6.25;3.03;;;;;;;;;;10340963;28;20512;-61
2023/09/27 16:19:01;;;;;;;5.93;3.40;;;;;;;;;;10341727;28;20026;-61
2023/09/27 16:24:03;;;;;;;8.25;3.42;;;;;;;;;;10339411;28;20283;-60
2023/09/27 16:29:04;;;;;;;11.07;3.03;;;;;;;;;;10334229;28;20026;-60
2023/09/27 16:34:05;;;;;;;8.25;3.38;;;;;;;;;;10338680;28;20025;-60
2023/09/27 16:39:06;;;;;;;6.93;3.35;;;;;;;;;;10344378;28;20022;-61
2023/09/27 16:44:07;;;;;;;11.05;3.50;;;;;;;;;;10360097;28;20554;-60
2023/09/27 16:49:08;;;;;;;9.05;3.72;;;;;;;;;;10361515;28;20100;-60
2023/09/27 16:54:09;;;;;;;9.00;2.92;;;;;;;;;;10354207;28;20421;-59
2023/09/27 16:59:10;;;;;;;8.50;3.15;;;;;;;;;;10347713;28;20529;-58
2023/09/27 17:04:12;;;;;;;4.60;2.97;;;;;;;;;;10339660;28;20493;-59
2023/09/27 17:09:14;;;;;;;7.03;2.92;;;;;;;;;;10348712;28;20490;-59
2023/09/27 17:14:14;;;;;;;4.45;2.65;;;;;;;;;;10333954;28;20080;-59
2023/09/27 17:19:25;;;;;;;6.05;2.80;;;;;;;;;;10333152;28;20106;-59
2023/09/27 17:24:26;;;;;;;7.50;2.90;;;;;;;;;;10332194;28;20058;-58
2023/09/27 17:29:26;;;;;;;5.43;3.03;;;;;;;;;;10335168;28;20041;-60
2023/09/27 17:34:27;;;;;;;3.63;2.50;;;;;;;;;;10333553;28;20034;-59
2023/09/27 17:39:27;;;;;;;12.55;3.08;;;;;;;;;;10334172;28;20034;-60
2023/09/27 17:44:28;;;;;;;7.00;2.80;;;;;;;;;;10333393;28;20030;-60
2023/09/27 17:49:29;;;;;;;13.55;2.83;;;;;;;;;;10337515;28;20101;-61
2023/09/27 17:54:29;;;;;;;6.47;3.10;;;;;;;;;;10346170;28;20034;-59
2023/09/27 17:59:30;;;;;;;16.13;3.45;;;;;;;;;;10343107;28;20481;-59
2023/09/27 18:04:31;;;;;;;9.70;3.42;;;;;;;;;;10351870;28;20041;-59
2023/09/27 18:09:35;;;;;;;10.63;4.20;;;;;;;;;;10353124;28;20030;-60
2023/09/27 18:14:37;;;;;;;11.18;3.80;;;;;;;;;;10350324;28;20036;-60
2023/09/27 18:19:37;;;;;;;8.52;3.75;;;;;;;;;;10342299;28;20394;-60
2023/09/27 18:24:38;;;;;;;10.55;3.75;;;;;;;;;;10344878;28;20048;-60
2023/09/27 18:29:40;;;;;;;10.35;4.35;;;;;;;;;;10345495;28;20084;-60
2023/09/27 18:34:41;;;;;;;7.43;4.35;;;;;;;;;;10354389;28;20445;-59
2023/09/27 18:39:41;;;;;;;10.70;4.60;;;;;;;;;;10343705;28;20037;-59
2023/09/27 18:44:44;;;;;;;10.35;4.47;;;;;;;;;;10364700;28;20034;-60
2023/09/27 18:49:45;;;;;;;7.95;4.40;;;;;;;;;;10341908;28;20042;-60
2023/09/27 18:54:47;;;;;;;10.35;5.15;;;;;;;;;;10362650;28;20029;-61
2023/09/27 18:59:48;;;;;;;8.57;4.32;;;;;;;;;;10344742;28;20040;-61
2023/09/27 19:04:49;;;;;;;12.60;4.55;;;;;;;;;;10367244;28;20474;-60
2023/09/27 19:09:49;;;;;;;11.57;4.50;;;;;;;;;;10370367;28;20408;-61
2023/09/27 19:14:50;;;;;;;14.85;4.35;;;;;;;;;;10370545;28;20107;-60
2023/09/27 19:19:50;;;;;;;9.65;4.72;;;;;;;;;;10370821;28;20120;-61
2023/09/27 19:24:51;;;;;;;13.38;4.47;;;;;;;;;;10370720;28;20033;-61
2023/09/27 19:29:51;;;;;;;16.83;4.50;;;;;;;;;;10370320;28;20493;-60
2023/09/27 19:34:53;;;;;;;12.75;4.38;;;;;;;;;;10370378;28;20069;-60
2023/09/27 19:39:54;;;;;;;10.05;4.80;;;;;;;;;;10369647;28;20036;-61
2023/09/27 19:44:54;;;;;;;6.72;4.78;;;;;;;;;;10369730;28;20069;-60
2023/09/27 19:49:55;;;;;;;9.85;4.35;;;;;;;;;;10369122;28;20398;-60
2023/09/27 19:54:56;;;;;;;6.60;3.88;;;;;;;;;;10367942;28;20029;-60
2023/09/27 19:59:57;;;;;;;13.15;4.05;;;;;;;;;;10368683;28;20108;-60
2023/09/27 20:04:58;;;;;;;7.93;4.28;;;;;;;;;;10368571;28;20081;-60
2023/09/27 20:09:58;;;;;;;15.50;4.75;;;;;;;;;;10369028;28;20041;-60
2023/09/27 20:14:59;;;;;;;6.28;3.67;;;;;;;;;;10368658;28;20053;-60
2023/09/27 20:20:01;;;;;;;12.18;4.28;;;;;;;;;;10368554;28;20044;-59
2023/09/27 20:25:03;;;;;;;11.07;4.63;;;;;;;;;;10369189;28;20056;-62
2023/09/27 20:30:04;;;;;;;5.10;3.78;;;;;;;;;;10367125;28;20029;-61
2023/09/27 20:35:05;;;;;;;5.78;3.83;;;;;;;;;;10367843;28;20113;-62
2023/09/27 20:40:06;;;;;;;6.60;3.90;;;;;;;;;;10368082;28;20066;-60
2023/09/27 20:45:08;;;;;;;6.75;4.13;;;;;;;;;;10367967;28;20657;-61
2023/09/27 20:50:12;;;;;;;9.05;3.92;;;;;;;;;;10367747;28;20045;-61
2023/09/27 20:55:12;;;;;;;9.20;3.65;;;;;;;;;;10367778;28;20052;-61
2023/09/27 21:00:13;;;;;;;6.53;3.55;;;;;;;;;;10367328;28;20026;-61
2023/09/27 21:05:14;;;;;;;16.58;4.32;;;;;;;;;;10367334;28;20442;-61
2023/09/27 21:10:15;;;;;;;5.90;3.60;;;;;;;;;;10367922;28;20064;-61
2023/09/27 21:15:16;;;;;;;12.82;4.22;;;;;;;;;;10368017;28;20119;-61
2023/09/27 21:20:16;;;;;;;5.80;3.47;;;;;;;;;;10367300;28;20509;-61
2023/09/27 21:25:17;;;;;;;5.55;3.70;;;;;;;;;;10368712;28;20500;-59
2023/09/27 21:30:18;;;;;;;7.70;3.75;;;;;;;;;;10374277;28;20034;-59
2023/09/27 21:35:18;;;;;;;7.18;3.83;;;;;;;;;;10374845;28;20041;-59
2023/09/27 21:40:19;;;;;;;7.65;3.55;;;;;;;;;;10372993;28;20382;-60
2023/09/27 21:45:19;;;;;;;7.22;3.55;;;;;;;;;;10372238;28;20030;-59
2023/09/27 21:50:20;;;;;;;8.57;4.32;;;;;;;;;;10373017;28;20041;-59
2023/09/27 21:55:21;;;;;;;12.73;3.70;;;;;;;;;;10373918;28;20030;-60
2023/09/27 22:00:27;;;;;;;6.45;3.75;;;;;;;;;;10373139;28;20033;-62
2023/09/27 22:05:32;;;;;;;6.13;3.55;;;;;;;;;;10372922;28;20413;-59
2023/09/27 22:10:42;;;;;;;8.32;4.00;;;;;;;;;;10372876;28;20108;-62
2023/09/27 22:15:43;;;;;;;5.80;3.42;;;;;;;;;;10373446;28;20046;-62
2023/09/27 22:20:45;;;;;;;8.45;3.65;;;;;;;;;;10372721;28;20390;-58
2023/09/27 22:25:46;;;;;;;12.18;3.70;;;;;;;;;;10373152;28;20088;-58
2023/09/27 22:30:48;;;;;;;8.38;3.60;;;;;;;;;;10373180;28;20429;-65
2023/09/27 22:35:51;;;;;;;10.23;3.75;;;;;;;;;;10372370;28;20041;-59
2023/09/27 22:40:53;;;;;;;11.45;3.97;;;;;;;;;;10372054;28;20033;-60
2023/09/27 22:45:53;;;;;;;9.32;3.88;;;;;;;;;;10371657;28;20482;-58
2023/09/27 22:50:59;;;;;;;4.88;3.47;;;;;;;;;;10371397;28;20046;-61
2023/09/27 22:55:59;;;;;;;8.60;3.40;;;;;;;;;;10371975;28;20061;-58
2023/09/27 23:01:27;;;;;;;7.30;3.42;;;;;;;;;;10371602;28;20037;-59
2023/09/27 23:06:28;;;;;;;9.73;4.05;;;;;;;;;;10370965;28;20025;-61
2023/09/27 23:11:29;;;;;;;8.15;3.55;;;;;;;;;;10371352;28;20070;-59
2023/09/27 23:16:33;;;;;;;5.63;3.53;;;;;;;;;;10370598;28;20022;-58
2023/09/27 23:21:33;;;;;;;4.13;3.20;;;;;;;;;;10370834;28;20034;-58
2023/09/27 23:32:02;;;;;;;6.18;3.53;;;;;;;;;;10369960;28;20022;-59
2023/09/27 23:37:12;;;;;;;12.77;3.35;;;;;;;;;;10370409;28;20283;-59
2023/09/27 23:42:22;;;;;;;4.80;3.13;;;;;;;;;;10370032;28;20040;-63
2023/09/27 23:47:23;;;;;;;6.07;3.40;;;;;;;;;;10369150;28;20050;-59
2023/09/27 23:52:24;;;;;;;5.78;3.55;;;;;;;;;;10369869;28;20026;-59
2023/09/27 23:57:27;;;;;;;5.35;3.17;;;;;;;;;;10369106;28;20476;-58
